Geddington, United Kingdom
Current Conditions -  °F | °C
As of 7:50 AM on Sunday 23 Nov 2014 (Local Time) from EGXT Reporting Station
Moderate Rain Moderate Rain  
Wind Chill: 41°   Ceiling: 5000
Heat Index: 46°   Visibility: 4mi
Dew Point: 46°   Wind: 12mph
Humidity: 100%   Direction: 320°NW
Pressure: 30"   Gusts: NA
Location:  52.44°N, 0.69°W
Report Text: EGXT 230750Z AUTO 32010KT 7000 RA FEW010/// BKN050/// 08/08 Q1016
Loading
Personal Weather Stations






























Interactive Weather Map New forecast layout! Learn more

10-Day Weather Forecast

Advertisements
Track Severe Weather on mobile